createdAt,value
2023-05-20T00:02:50.544Z,102080.59
2023-05-20T00:06:56.181Z,102079.16
2023-05-20T00:10:59.106Z,102078.53
2023-05-20T00:15:04.433Z,102076.19
2023-05-20T00:19:07.767Z,102076.53
2023-05-20T00:23:12.174Z,102080.72
2023-05-20T00:27:15.106Z,102086.66
2023-05-20T00:31:18.193Z,102077.16
2023-05-20T00:35:21.670Z,102075.88
2023-05-20T00:39:26.737Z,102071.06
2023-05-20T00:43:30.288Z,102067.75
2023-05-20T00:48:01.584Z,102063.78
2023-05-20T00:52:05.741Z,102064.25
2023-05-20T00:56:27.522Z,102071.88
2023-05-20T01:01:02.232Z,102070.56
2023-05-20T01:05:05.893Z,102063.19
2023-05-20T01:09:09.339Z,102064.84
2023-05-20T01:13:47.083Z,102061.06
2023-05-20T01:17:53.474Z,102058.94
2023-05-20T01:21:58.827Z,102064.63
2023-05-20T01:26:03.060Z,102061.06
2023-05-20T01:30:09.145Z,102064.84
2023-05-20T01:34:12.530Z,102067.81
2023-05-20T01:38:20.408Z,102061.38
2023-05-20T01:42:27.864Z,102065.41
2023-05-20T01:46:34.083Z,102059.94
2023-05-20T01:50:37.109Z,102060.19
2023-05-20T01:54:40.399Z,102057.66
2023-05-20T01:58:44.853Z,102054.16
2023-05-20T02:02:48.172Z,102052.13
2023-05-20T02:06:51.354Z,102039.13
2023-05-20T02:10:55.062Z,102045.28
2023-05-20T02:15:00.946Z,102045.56
2023-05-20T02:19:04.832Z,102038.75
2023-05-20T02:23:08.633Z,102036.31
2023-05-20T02:27:13.226Z,102037.00
2023-05-20T02:31:22.959Z,102038.91
2023-05-20T02:35:25.969Z,102028.28
2023-05-20T02:39:29.710Z,102033.19
2023-05-20T02:43:33.108Z,102028.19
2023-05-20T02:47:40.891Z,102025.28
2023-05-20T02:51:43.983Z,102015.88
2023-05-20T02:55:47.979Z,102018.22
2023-05-20T02:59:52.497Z,102018.72
2023-05-20T03:03:58.484Z,102024.44
2023-05-20T03:08:02.262Z,102025.31
2023-05-20T03:12:05.504Z,102030.41
2023-05-20T03:16:09.033Z,102038.41
2023-05-20T03:20:17.783Z,102027.53
2023-05-20T03:24:20.697Z,102026.31
2023-05-20T03:28:24.338Z,102030.53
2023-05-20T03:32:27.663Z,102032.47
2023-05-20T03:36:32.454Z,102032.91
2023-05-20T03:40:36.040Z,102028.94
2023-05-20T03:44:40.002Z,102028.34
2023-05-20T03:48:43.495Z,102039.66
2023-05-20T03:52:48.808Z,102039.28
2023-05-20T03:56:56.573Z,102049.56
2023-05-20T04:01:01.158Z,102048.09
2023-05-20T04:05:10.222Z,102037.44
2023-05-20T04:09:19.805Z,102044.78
2023-05-20T04:13:25.294Z,102049.38
2023-05-20T04:17:30.248Z,102046.66
2023-05-20T04:21:39.056Z,102048.53
2023-05-20T04:25:44.663Z,102046.84
2023-05-20T04:29:48.645Z,102051.69
2023-05-20T04:33:54.952Z,102048.75
2023-05-20T04:37:59.394Z,102053.78
2023-05-20T04:42:04.866Z,102048.72
2023-05-20T04:46:08.931Z,102053.75
2023-05-20T04:50:13.554Z,102055.81
2023-05-20T04:54:20.401Z,102050.34
2023-05-20T04:58:25.943Z,102057.28
2023-05-20T05:02:29.854Z,102058.94
2023-05-20T05:06:33.346Z,102053.72
2023-05-20T05:10:37.211Z,102047.38
2023-05-20T05:14:44.799Z,102051.94
2023-05-20T05:18:48.292Z,102047.97
2023-05-20T05:22:51.982Z,102040.16
2023-05-20T05:26:56.601Z,102046.63
2023-05-20T05:31:02.328Z,102043.63
2023-05-20T05:35:08.133Z,102046.31
2023-05-20T05:39:12.132Z,102037.88
2023-05-20T05:43:16.240Z,102051.44
2023-05-20T05:47:22.635Z,102041.72
2023-05-20T05:51:28.111Z,102035.31
2023-05-20T05:55:38.119Z,102035.19
2023-05-20T05:59:41.633Z,102036.75
2023-05-20T06:03:46.793Z,102043.75
2023-05-20T06:07:50.336Z,102042.78
2023-05-20T06:11:54.869Z,102040.44
2023-05-20T06:15:57.801Z,102038.00
2023-05-20T06:20:05.878Z,102034.06
2023-05-20T06:24:08.721Z,102025.28
2023-05-20T06:28:13.079Z,102027.13
2023-05-20T06:32:16.658Z,102011.28
2023-05-20T06:36:21.061Z,102014.78
2023-05-20T06:40:24.275Z,102013.97
2023-05-20T06:44:27.318Z,102013.41
2023-05-20T06:48:43.965Z,102000.00
2023-05-20T06:52:48.750Z,101996.25
2023-05-20T06:56:52.686Z,101990.97
2023-05-20T07:00:57.758Z,101994.44
2023-05-20T07:05:02.479Z,101988.56
2023-05-20T07:09:07.780Z,101984.56
2023-05-20T07:13:10.771Z,101990.66
2023-05-20T07:17:14.155Z,101992.91
2023-05-20T07:21:18.042Z,101990.75
2023-05-20T07:25:41.192Z,101979.47
2023-05-20T07:29:44.601Z,101980.25
2023-05-20T07:33:48.536Z,101973.84
2023-05-20T07:37:52.277Z,101977.69
2023-05-20T07:41:56.774Z,101981.56
2023-05-20T07:46:01.237Z,101970.94
2023-05-20T07:50:05.888Z,101961.50
2023-05-20T07:54:11.820Z,101962.59
2023-05-20T07:58:16.051Z,101965.84
2023-05-20T08:02:19.772Z,101942.44
2023-05-20T08:06:24.414Z,101952.03
2023-05-20T08:10:27.793Z,101945.69
2023-05-20T08:14:33.402Z,101937.09
2023-05-20T08:18:37.799Z,101940.16
2023-05-20T08:22:41.572Z,101927.81
2023-05-20T08:26:44.737Z,101933.31
2023-05-20T08:30:49.474Z,101926.75
2023-05-20T08:34:52.263Z,101933.97
2023-05-20T08:38:55.755Z,101933.00
2023-05-20T08:42:59.439Z,101942.38
2023-05-20T08:47:04.770Z,101918.69
2023-05-20T08:51:10.551Z,101928.38
2023-05-20T08:55:22.787Z,101908.88
2023-05-20T08:59:28.559Z,101911.59
2023-05-20T09:03:34.156Z,101921.78
2023-05-20T09:07:37.094Z,101920.25
2023-05-20T09:11:41.239Z,101926.28
2023-05-20T09:15:44.342Z,101930.50
2023-05-20T09:19:51.029Z,101923.22
2023-05-20T09:23:54.185Z,101929.03
2023-05-20T09:27:58.003Z,101916.09
2023-05-20T09:32:03.124Z,101910.09
2023-05-20T09:36:09.660Z,101902.63
2023-05-20T09:40:15.227Z,101902.63
2023-05-20T09:44:18.359Z,101908.00
2023-05-20T09:48:22.308Z,101905.63
2023-05-20T09:52:28.811Z,101894.81
2023-05-20T09:56:32.910Z,101895.34
2023-05-20T10:00:35.943Z,101877.63
2023-05-20T10:04:46.410Z,101883.13
2023-05-20T10:09:13.630Z,101883.06
2023-05-20T10:13:29.231Z,101878.09
2023-05-20T10:17:41.033Z,101866.97
2023-05-20T10:21:44.240Z,101867.53
2023-05-20T10:25:53.984Z,101870.56
2023-05-20T10:29:58.322Z,101863.03
2023-05-20T10:34:02.616Z,101848.19
2023-05-20T10:38:10.389Z,101840.75
2023-05-20T10:42:15.614Z,101840.31
2023-05-20T10:46:31.228Z,101843.19
2023-05-20T10:50:41.627Z,101843.06
2023-05-20T10:54:46.730Z,101838.53
2023-05-20T10:58:54.835Z,101823.47
2023-05-20T11:02:58.623Z,101825.66
2023-05-20T11:07:01.667Z,101825.47
2023-05-20T11:11:05.850Z,101825.84
2023-05-20T11:15:12.998Z,101812.59
2023-05-20T11:19:17.003Z,101803.34
2023-05-20T11:23:23.410Z,101795.53
2023-05-20T11:27:32.648Z,101793.19
2023-05-20T11:31:52.156Z,101790.81
2023-05-20T11:36:08.742Z,101778.75
2023-05-20T11:40:27.114Z,101788.94
2023-05-20T11:44:33.231Z,101788.06
2023-05-20T11:48:37.496Z,101775.59
2023-05-20T11:52:40.454Z,101776.13
2023-05-20T11:56:49.369Z,101775.81
2023-05-20T12:00:59.111Z,101770.22
2023-05-20T12:05:06.995Z,101767.44
2023-05-20T12:09:10.394Z,101767.72
2023-05-20T12:13:14.431Z,101763.41
2023-05-20T12:17:21.734Z,101753.88
2023-05-20T12:21:27.641Z,101760.28
2023-05-20T12:25:31.972Z,101751.03
2023-05-20T12:29:36.946Z,101742.97
2023-05-20T12:33:40.277Z,101735.75
2023-05-20T12:37:46.080Z,101727.09
2023-05-20T12:41:49.642Z,101722.38
2023-05-20T12:45:58.632Z,101721.22
2023-05-20T12:50:02.401Z,101713.34
2023-05-20T12:54:07.192Z,101703.50
2023-05-20T12:58:10.455Z,101709.94
2023-05-20T13:02:13.844Z,101725.84
2023-05-20T13:06:16.793Z,101716.31
2023-05-20T13:10:23.414Z,101708.09
2023-05-20T13:14:27.885Z,101719.38
2023-05-20T13:18:30.930Z,101714.13
2023-05-20T13:22:33.950Z,101705.44
2023-05-20T13:26:38.242Z,101718.03
2023-05-20T13:30:42.735Z,101712.22
2023-05-20T13:34:46.943Z,101709.19
2023-05-20T13:38:59.130Z,101698.88
2023-05-20T13:43:03.305Z,101709.09
2023-05-20T13:47:16.784Z,101712.34
2023-05-20T13:51:36.596Z,101700.13
2023-05-20T13:55:59.694Z,101708.41
2023-05-20T14:00:15.073Z,101692.03
2023-05-20T14:04:44.932Z,101685.75
2023-05-20T14:09:09.141Z,101682.03
2023-05-20T14:13:19.248Z,101688.38
2023-05-20T14:17:31.616Z,101690.31
2023-05-20T14:21:34.755Z,101689.69
2023-05-20T14:25:47.266Z,101681.25
2023-05-20T14:29:59.168Z,101681.34
2023-05-20T14:34:07.485Z,101671.16
2023-05-20T14:38:23.130Z,101670.16
2023-05-20T14:42:31.890Z,101674.34
2023-05-20T14:46:44.733Z,101682.81
2023-05-20T14:51:01.750Z,101670.13
2023-05-20T14:55:26.162Z,101669.38
2023-05-20T14:59:44.460Z,101660.16
2023-05-20T15:03:47.669Z,101658.50
2023-05-20T15:08:03.005Z,101656.13
2023-05-20T15:12:28.839Z,101658.63
2023-05-20T15:16:57.686Z,101659.13
2023-05-20T15:21:24.507Z,101657.91
2023-05-20T15:25:58.371Z,101648.25
2023-05-20T15:30:26.996Z,101643.63
2023-05-20T15:35:02.898Z,101652.84
2023-05-20T15:39:39.701Z,101644.19
2023-05-20T15:43:57.750Z,101637.91
2023-05-20T15:48:41.196Z,101629.50
2023-05-20T15:53:40.624Z,101625.97
2023-05-20T15:58:22.969Z,101616.44
2023-05-20T16:03:08.300Z,101602.78
2023-05-20T16:07:37.256Z,101606.06
2023-05-20T16:12:04.563Z,101595.53
2023-05-20T16:16:29.512Z,101600.97
2023-05-20T16:20:53.600Z,101602.16
2023-05-20T16:24:57.865Z,101593.41
2023-05-20T16:29:00.766Z,101600.66
2023-05-20T16:33:09.591Z,101594.06
2023-05-20T16:37:18.336Z,101610.22
2023-05-20T16:41:47.716Z,101601.25
2023-05-20T16:45:50.580Z,101600.19
2023-05-20T16:50:03.754Z,101604.78
2023-05-20T16:54:08.247Z,101603.78
2023-05-20T16:58:19.036Z,101602.00
2023-05-20T17:02:22.128Z,101604.31
2023-05-20T17:06:25.372Z,101592.13
2023-05-20T17:10:28.902Z,101604.19
2023-05-20T17:14:33.706Z,101598.75
2023-05-20T17:18:37.135Z,101605.66
2023-05-20T17:22:40.757Z,101597.44
2023-05-20T17:26:49.483Z,101608.19
2023-05-20T17:30:53.696Z,101609.41
2023-05-20T17:35:08.377Z,101601.00
2023-05-20T17:39:13.723Z,101608.59
2023-05-20T17:43:16.609Z,101614.78
2023-05-20T17:47:21.329Z,101611.84
2023-05-20T17:51:25.122Z,101616.91
2023-05-20T17:55:29.069Z,101621.47
2023-05-20T17:59:33.814Z,101627.31
2023-05-20T18:03:39.905Z,101629.84
2023-05-20T18:07:43.280Z,101633.72
2023-05-20T18:11:47.133Z,101634.03
2023-05-20T18:15:51.020Z,101626.56
2023-05-20T18:19:55.516Z,101630.50
2023-05-20T18:23:59.493Z,101628.84
2023-05-20T18:28:03.100Z,101631.88
2023-05-20T18:32:07.033Z,101630.84
2023-05-20T18:36:11.549Z,101631.97
2023-05-20T18:40:15.047Z,101624.19
2023-05-20T18:44:23.756Z,101620.13
2023-05-20T18:48:27.563Z,101620.13
2023-05-20T18:52:33.909Z,101629.84
2023-05-20T18:56:38.110Z,101631.25
2023-05-20T19:00:41.539Z,101629.88
2023-05-20T19:05:05.512Z,101631.00
2023-05-20T19:09:11.040Z,101623.56
2023-05-20T19:13:14.109Z,101635.72
2023-05-20T19:17:21.235Z,101618.38
2023-05-20T19:21:24.918Z,101620.25
2023-05-20T19:25:29.765Z,101626.63
2023-05-20T19:29:38.792Z,101634.09
2023-05-20T19:33:43.958Z,101626.09
2023-05-20T19:37:48.410Z,101631.03
2023-05-20T19:41:54.151Z,101634.91
2023-05-20T19:45:57.464Z,101640.97
2023-05-20T19:50:02.726Z,101631.88
2023-05-20T19:54:06.664Z,101631.31
2023-05-20T19:58:15.159Z,101640.41
2023-05-20T20:02:18.241Z,101643.19
2023-05-20T20:06:34.242Z,101655.56
2023-05-20T20:10:51.089Z,101648.66
2023-05-20T20:15:08.947Z,101649.19
2023-05-20T20:19:11.856Z,101656.31
2023-05-20T20:23:14.950Z,101646.66
2023-05-20T20:27:19.147Z,101640.03
2023-05-20T20:31:24.485Z,101636.44
2023-05-20T20:35:27.895Z,101633.66
2023-05-20T20:39:30.798Z,101629.00
2023-05-20T20:43:34.761Z,101627.34
2023-05-20T20:47:40.937Z,101634.22
2023-05-20T20:51:45.401Z,101625.38
2023-05-20T20:55:48.455Z,101629.25
2023-05-20T20:59:53.901Z,101616.84
2023-05-20T21:03:58.609Z,101624.00
2023-05-20T21:08:13.277Z,101628.09
2023-05-20T21:12:17.533Z,101630.00
2023-05-20T21:16:21.400Z,101628.06
2023-05-20T21:20:25.885Z,101632.47
2023-05-20T21:24:28.962Z,101635.50
2023-05-20T21:28:32.332Z,101629.72
2023-05-20T21:32:35.777Z,101627.25
2023-05-20T21:36:42.834Z,101620.34
2023-05-20T21:40:45.578Z,101611.53
2023-05-20T21:44:48.726Z,101614.00
2023-05-20T21:49:07.039Z,101609.06
2023-05-20T21:53:21.711Z,101597.75
2023-05-20T21:57:25.169Z,101591.69
2023-05-20T22:01:34.225Z,101586.47
2023-05-20T22:05:49.801Z,101599.88
2023-05-20T22:09:58.306Z,101593.81
2023-05-20T22:14:02.132Z,101584.13
2023-05-20T22:18:07.612Z,101582.44
2023-05-20T22:22:11.807Z,101582.44
2023-05-20T22:26:20.715Z,101579.69
2023-05-20T22:30:23.767Z,101576.66
2023-05-20T22:34:27.356Z,101570.63
2023-05-20T22:38:37.634Z,101571.16
2023-05-20T22:42:42.378Z,101547.25
2023-05-20T22:46:46.099Z,101552.63
2023-05-20T22:50:56.087Z,101544.38
2023-05-20T22:55:01.770Z,101543.56
2023-05-20T22:59:07.910Z,101549.31
2023-05-20T23:03:12.095Z,101538.56
2023-05-20T23:07:18.984Z,101532.81
2023-05-20T23:11:21.902Z,101521.22
2023-05-20T23:15:27.712Z,101517.94
2023-05-20T23:19:34.147Z,101516.28
2023-05-20T23:23:37.283Z,101513.22
2023-05-20T23:27:42.114Z,101510.19
2023-05-20T23:31:48.237Z,101509.06
2023-05-20T23:35:53.115Z,101500.22
2023-05-20T23:39:57.035Z,101508.19
2023-05-20T23:44:00.009Z,101502.97
2023-05-20T23:48:04.334Z,101494.94
2023-05-20T23:52:07.973Z,101494.94
2023-05-20T23:56:11.495Z,101487.25
